Time;durP1;ratioP1;P1;durP2;ratioP2;P2;SDS_P1;SDS_P2;PMS_P1;PMS_P2;Temp;Humidity;BMP_temperature;BMP_pressure;BME280_temperature;BME280_humidity;BME280_pressure;Samples;Min_cycle;Max_cycle;Signal;HPM_P1;HPM_P2
2022/05/22 00:01:40;;;;;;;10.50;3.80;;;17.30;99.90;;;;;;6281035;22;20151;-90
2022/05/22 00:04:06;;;;;;;10.07;3.77;;;17.30;99.90;;;;;;6281074;22;20213;-91
2022/05/22 00:06:32;;;;;;;7.63;3.60;;;17.30;99.90;;;;;;6280891;22;20225;-90
2022/05/22 00:08:57;;;;;;;8.23;3.80;;;17.30;99.90;;;;;;6281435;22;20158;-90
2022/05/22 00:11:23;;;;;;;6.73;3.30;;;17.30;99.90;;;;;;6281418;22;20146;-89
2022/05/22 00:13:49;;;;;;;8.83;3.23;;;17.30;99.90;;;;;;6280933;22;20170;-90
2022/05/22 00:18:59;;;;;;;12.63;3.37;;;17.20;99.90;;;;;;6308407;22;20208;-90
2022/05/22 00:21:25;;;;;;;12.07;3.30;;;17.20;99.90;;;;;;6281223;22;20160;-90
2022/05/22 00:23:51;;;;;;;9.40;3.50;;;17.10;99.90;;;;;;6281177;22;20186;-90
2022/05/22 00:26:16;;;;;;;8.87;3.47;;;17.20;99.90;;;;;;6281200;22;20482;-90
2022/05/22 00:28:42;;;;;;;8.30;3.57;;;17.20;99.90;;;;;;6281447;22;20572;-89
2022/05/22 00:31:08;;;;;;;10.23;3.30;;;17.10;99.90;;;;;;6281213;22;20143;-91
2022/05/22 00:33:34;;;;;;;5.73;3.07;;;17.00;99.90;;;;;;6280781;22;20153;-91
2022/05/22 00:36:00;;;;;;;10.07;3.33;;;16.90;99.90;;;;;;6280685;22;20152;-90
2022/05/22 00:38:26;;;;;;;9.07;3.20;;;16.90;99.90;;;;;;6281090;22;20157;-90
2022/05/22 00:40:52;;;;;;;10.83;3.77;;;16.90;99.90;;;;;;6280665;22;20169;-90
2022/05/22 00:43:46;;;;;;;8.40;3.07;;;16.70;99.90;;;;;;6281264;22;20179;-90
2022/05/22 00:46:14;;;;;;;8.00;3.47;;;16.70;99.90;;;;;;6276053;22;20517;-91
2022/05/22 00:48:43;;;;;;;9.10;3.10;;;16.60;99.90;;;;;;6280555;22;20143;-91
2022/05/22 00:51:39;;;;;;;14.13;4.50;;;16.70;99.90;;;;;;6281316;22;20211;-90
2022/05/22 00:54:13;;;;;;;11.33;3.87;;;16.80;99.90;;;;;;6280843;22;20653;-92
2022/05/22 00:56:46;;;;;;;8.60;3.30;;;16.70;99.90;;;;;;6280945;22;20168;-90
2022/05/22 00:59:19;;;;;;;12.90;4.80;;;16.70;99.90;;;;;;6281092;22;20151;-91
2022/05/22 01:01:46;;;;;;;12.03;3.70;;;16.60;99.90;;;;;;6280780;22;20767;-89
2022/05/22 01:04:20;;;;;;;9.13;3.27;;;16.70;99.90;;;;;;6280516;22;20631;-90
2022/05/22 01:06:46;;;;;;;13.00;3.80;;;16.70;99.90;;;;;;6280897;22;20594;-89
2022/05/22 01:09:12;;;;;;;8.93;4.03;;;16.50;99.90;;;;;;6280710;22;20164;-91
2022/05/22 01:11:39;;;;;;;8.03;3.90;;;16.40;99.90;;;;;;6281321;22;20479;-91
2022/05/22 01:14:09;;;;;;;7.27;3.50;;;16.40;99.90;;;;;;6280463;22;20181;-90
2022/05/22 01:16:35;;;;;;;8.53;3.70;;;16.40;99.90;;;;;;6280933;22;20196;-90
2022/05/22 01:19:00;;;;;;;12.50;4.07;;;16.40;99.90;;;;;;6280454;22;20150;-91
2022/05/22 01:21:31;;;;;;;8.37;3.43;;;16.30;99.90;;;;;;6280870;22;20165;-91
2022/05/22 01:23:57;;;;;;;12.33;3.87;;;16.30;99.90;;;;;;6280343;22;20591;-90
2022/05/22 01:26:25;;;;;;;9.37;3.90;;;16.40;99.90;;;;;;6280808;22;20150;-91
2022/05/22 01:28:51;;;;;;;11.73;4.00;;;16.30;99.90;;;;;;6281697;22;20571;-91
2022/05/22 01:31:17;;;;;;;11.47;3.77;;;16.20;99.90;;;;;;6282678;22;20150;-91
2022/05/22 01:33:45;;;;;;;7.40;3.73;;;16.10;99.90;;;;;;6282847;22;20170;-91
2022/05/22 01:36:11;;;;;;;8.90;3.93;;;16.10;99.90;;;;;;6283130;22;20162;-91
2022/05/22 01:38:38;;;;;;;10.10;3.33;;;16.00;99.90;;;;;;6282763;22;20157;-90
2022/05/22 01:41:04;;;;;;;9.70;3.33;;;15.90;99.90;;;;;;6282362;22;20595;-90
2022/05/22 01:43:30;;;;;;;7.73;3.20;;;15.90;99.90;;;;;;6282617;22;20178;-89
2022/05/22 01:45:56;;;;;;;9.23;4.00;;;16.00;99.90;;;;;;6282344;22;20145;-93
2022/05/22 01:48:22;;;;;;;7.60;3.17;;;15.90;99.90;;;;;;6282208;22;20234;-92
2022/05/22 01:50:48;;;;;;;8.00;3.80;;;15.90;99.90;;;;;;6282316;22;20571;-89
2022/05/22 01:53:15;;;;;;;11.67;3.93;;;15.80;99.90;;;;;;6282846;22;20138;-90
2022/05/22 01:55:41;;;;;;;11.57;3.73;;;15.80;99.90;;;;;;6282272;22;20186;-90
2022/05/22 01:58:07;;;;;;;8.43;3.33;;;15.70;99.90;;;;;;6282293;22;20153;-90
2022/05/22 02:00:34;;;;;;;11.03;3.40;;;15.70;99.90;;;;;;6282157;22;20151;-90
2022/05/22 02:03:00;;;;;;;11.57;3.70;;;15.70;99.90;;;;;;6282061;22;20180;-92
2022/05/22 02:05:26;;;;;;;8.23;4.27;;;15.80;99.90;;;;;;6282458;22;20159;-90
2022/05/22 02:10:37;;;;;;;10.50;4.10;;;15.70;99.90;;;;;;6309697;22;20193;-89
2022/05/22 02:13:03;;;;;;;7.00;4.27;;;15.80;99.90;;;;;;6282679;22;20145;-92
2022/05/22 02:15:31;;;;;;;7.43;4.07;;;15.80;99.90;;;;;;6282060;22;20173;-90
2022/05/22 02:17:57;;;;;;;8.13;3.50;;;15.70;99.90;;;;;;6282567;22;20174;-89
2022/05/22 02:20:24;;;;;;;12.50;4.00;;;15.60;99.90;;;;;;6282022;22;20138;-90
2022/05/22 02:22:55;;;;;;;10.60;4.37;;;15.60;99.90;;;;;;6281965;22;20174;-90
2022/05/22 02:25:27;;;;;;;7.90;4.03;;;15.60;99.90;;;;;;6281617;22;20138;-90
2022/05/22 02:27:54;;;;;;;11.43;4.03;;;15.60;99.90;;;;;;6281967;22;20146;-90
2022/05/22 02:30:23;;;;;;;10.40;3.93;;;15.60;99.90;;;;;;6281432;22;20156;-91
2022/05/22 02:32:49;;;;;;;8.40;3.70;;;15.50;99.90;;;;;;6281966;22;20196;-91
2022/05/22 02:35:15;;;;;;;11.43;4.10;;;15.60;99.90;;;;;;6281834;22;20150;-90
2022/05/22 02:37:46;;;;;;;8.67;3.60;;;15.50;99.90;;;;;;6282131;22;20161;-90
2022/05/22 02:40:13;;;;;;;8.20;4.27;;;15.50;99.90;;;;;;6281331;22;20241;-90
2022/05/22 02:42:46;;;;;;;7.97;4.03;;;15.40;99.90;;;;;;6281764;22;20186;-91
2022/05/22 02:45:15;;;;;;;10.43;3.80;;;15.50;99.90;;;;;;6281418;22;20153;-91
2022/05/22 02:47:41;;;;;;;9.87;4.80;;;15.40;99.90;;;;;;6281860;22;20153;-89
2022/05/22 02:50:08;;;;;;;10.00;3.63;;;15.40;99.90;;;;;;6281418;22;20154;-91
2022/05/22 02:52:34;;;;;;;9.10;4.40;;;15.30;99.90;;;;;;6281662;22;20172;-90
2022/05/22 02:55:00;;;;;;;7.50;4.10;;;15.30;99.90;;;;;;6281314;22;20142;-90
2022/05/22 02:57:26;;;;;;;8.27;3.97;;;15.40;99.90;;;;;;6281757;22;20154;-90
2022/05/22 02:59:53;;;;;;;10.17;4.30;;;15.30;99.90;;;;;;6281722;22;20156;-90
2022/05/22 03:02:19;;;;;;;14.67;4.63;;;15.30;99.90;;;;;;6281540;22;20256;-90
2022/05/22 03:04:47;;;;;;;9.50;4.40;;;15.20;99.90;;;;;;6281310;22;20146;-89
2022/05/22 03:07:16;;;;;;;13.03;4.60;;;15.20;99.90;;;;;;6281573;22;20583;-90
2022/05/22 03:09:43;;;;;;;8.97;4.73;;;15.20;99.90;;;;;;6281495;22;20189;-91
2022/05/22 03:12:15;;;;;;;10.13;4.73;;;15.30;99.90;;;;;;6281232;22;20583;-89
2022/05/22 03:14:46;;;;;;;10.00;5.50;;;15.30;99.90;;;;;;6281247;22;20170;-90
2022/05/22 03:17:11;;;;;;;9.67;4.57;;;15.20;99.90;;;;;;6281254;22;20154;-90
2022/05/22 03:19:37;;;;;;;11.93;5.37;;;15.20;99.90;;;;;;6281567;22;20156;-91
2022/05/22 03:22:05;;;;;;;10.30;5.07;;;15.10;99.90;;;;;;6281358;22;20164;-91
2022/05/22 03:24:30;;;;;;;11.30;5.00;;;15.00;99.90;;;;;;6281240;22;20154;-91
2022/05/22 03:26:56;;;;;;;14.07;5.10;;;15.00;99.90;;;;;;6281177;22;20487;-89
2022/05/22 03:29:22;;;;;;;10.70;5.17;;;14.90;99.90;;;;;;6281125;22;20149;-91
2022/05/22 03:31:49;;;;;;;9.03;5.60;;;15.10;99.90;;;;;;6281214;22;20158;-90
2022/05/22 03:34:15;;;;;;;11.30;5.43;;;15.00;99.90;;;;;;6281644;22;20182;-90
2022/05/22 03:36:40;;;;;;;12.53;5.13;;;15.00;99.90;;;;;;6281351;22;20581;-92
2022/05/22 03:39:07;;;;;;;12.90;6.00;;;15.00;99.90;;;;;;6280890;22;20146;-90
2022/05/22 03:41:34;;;;;;;14.83;5.47;;;14.90;99.90;;;;;;6281155;22;20142;-90
2022/05/22 03:44:01;;;;;;;12.23;5.10;;;14.90;99.90;;;;;;6280776;22;20180;-90
2022/05/22 03:46:27;;;;;;;14.37;5.90;;;14.80;99.90;;;;;;6280924;22;20150;-90
2022/05/22 03:48:52;;;;;;;9.87;5.17;;;14.90;99.90;;;;;;6281353;22;20220;-90
2022/05/22 03:51:18;;;;;;;10.50;5.30;;;14.90;99.90;;;;;;6280790;22;20639;-90
2022/05/22 03:53:43;;;;;;;9.57;4.97;;;14.90;99.90;;;;;;6281272;22;20145;-90
2022/05/22 03:56:11;;;;;;;12.63;5.27;;;14.90;99.90;;;;;;6281113;22;20152;-91
2022/05/22 03:58:37;;;;;;;14.10;6.10;;;14.90;99.90;;;;;;6280997;22;20634;-91
2022/05/22 04:01:02;;;;;;;11.30;4.93;;;14.90;99.90;;;;;;6280705;22;20222;-89
2022/05/22 04:03:29;;;;;;;10.43;5.70;;;14.90;99.90;;;;;;6281006;22;20176;-90
2022/05/22 04:05:54;;;;;;;13.03;5.60;;;14.90;99.90;;;;;;6281053;22;20555;-90
2022/05/22 04:08:20;;;;;;;7.60;5.37;;;14.80;99.90;;;;;;6281090;22;20141;-91
2022/05/22 04:10:46;;;;;;;11.23;4.97;;;14.80;99.90;;;;;;6281322;22;20320;-90
2022/05/22 04:13:11;;;;;;;8.70;5.30;;;14.90;99.90;;;;;;6280780;22;20582;-91
2022/05/22 04:15:37;;;;;;;14.63;6.17;;;14.90;99.90;;;;;;6281186;22;20149;-91
2022/05/22 04:18:02;;;;;;;9.30;5.43;;;14.90;99.90;;;;;;6281100;22;20151;-91
2022/05/22 04:20:28;;;;;;;8.40;4.80;;;14.90;99.90;;;;;;6281349;22;20217;-91
2022/05/22 06:58:20;;;;;;;8.10;3.77;;;18.40;99.90;;;;;;6330799;22;20211;-85
2022/05/22 07:00:51;;;;;;;10.70;3.73;;;18.40;99.90;;;;;;6339028;22;20486;-84
2022/05/22 07:03:16;;;;;;;9.20;4.27;;;18.60;99.90;;;;;;6339139;22;20171;-85
2022/05/22 07:05:42;;;;;;;6.57;3.80;;;18.90;99.90;;;;;;6311668;22;20149;-84
2022/05/22 07:08:08;;;;;;;10.03;3.93;;;19.00;99.90;;;;;;6312208;22;20153;-84
2022/05/22 07:13:18;;;;;;;9.27;3.90;;;18.90;99.90;;;;;;6336394;22;20201;-84
2022/05/22 07:15:44;;;;;;;11.37;3.57;;;19.10;99.90;;;;;;6308240;22;20572;-84
2022/05/22 07:18:10;;;;;;;9.20;4.20;;;19.20;99.90;;;;;;6281079;22;20152;-84
2022/05/22 07:20:35;;;;;;;11.10;4.43;;;19.30;99.90;;;;;;6280813;22;20156;-84
2022/05/22 07:23:01;;;;;;;8.13;3.90;;;19.30;99.90;;;;;;6280788;22;20203;-85
2022/05/22 07:25:27;;;;;;;7.60;3.83;;;19.40;99.90;;;;;;6280434;22;20144;-84
2022/05/22 07:27:52;;;;;;;15.47;4.50;;;19.50;99.90;;;;;;6281277;22;20166;-86
2022/05/22 07:30:18;;;;;;;9.47;3.90;;;19.60;99.90;;;;;;6280885;22;20195;-86
2022/05/22 07:32:44;;;;;;;9.23;3.67;;;19.60;99.90;;;;;;6280932;22;20228;-84
2022/05/22 07:35:10;;;;;;;9.83;4.10;;;19.40;99.90;;;;;;6280497;22;20153;-84
2022/05/22 07:37:35;;;;;;;8.60;3.90;;;19.40;99.90;;;;;;6281229;22;20158;-84
2022/05/22 07:40:01;;;;;;;10.73;4.23;;;19.50;99.90;;;;;;6281146;22;20151;-84
2022/05/22 07:42:26;;;;;;;11.70;4.20;;;19.70;99.90;;;;;;6280976;22;20177;-84
2022/05/22 07:44:52;;;;;;;11.27;4.50;;;19.70;99.90;;;;;;6280907;22;20160;-84
2022/05/22 07:47:17;;;;;;;7.70;3.97;;;19.80;99.90;;;;;;6280476;22;20170;-83
2022/05/22 07:52:27;;;;;;;9.33;3.97;;;19.80;99.60;;;;;;6307910;22;20141;-84
2022/05/22 07:54:53;;;;;;;9.67;4.07;;;19.80;99.80;;;;;;6280827;22;20178;-84
2022/05/22 07:57:18;;;;;;;11.03;4.80;;;20.00;98.80;;;;;;6280156;22;20168;-84
2022/05/22 07:59:44;;;;;;;7.30;3.67;;;19.90;98.40;;;;;;6280502;22;20558;-84
2022/05/22 08:02:12;;;;;;;6.20;4.00;;;20.00;98.60;;;;;;6307424;22;20166;-84
2022/05/22 08:04:42;;;;;;;11.10;4.43;;;20.00;98.90;;;;;;6280150;22;20144;-84
2022/05/22 08:07:07;;;;;;;11.50;4.53;;;19.90;98.90;;;;;;6280345;22;20238;-85
2022/05/22 08:09:33;;;;;;;11.70;4.33;;;19.90;98.70;;;;;;6280603;22;20581;-84
2022/05/22 08:11:58;;;;;;;11.23;4.27;;;19.90;98.50;;;;;;6280544;22;20569;-84
2022/05/22 08:14:24;;;;;;;10.93;4.27;;;19.90;98.60;;;;;;6280310;22;20182;-84
2022/05/22 08:16:53;;;;;;;11.20;4.27;;;19.90;98.70;;;;;;6280557;22;20146;-84
2022/05/22 08:19:19;;;;;;;12.10;4.17;;;20.10;98.40;;;;;;6280056;22;20184;-84
2022/05/22 08:21:44;;;;;;;6.87;3.87;;;20.30;97.90;;;;;;6280312;22;20662;-84
2022/05/22 08:24:10;;;;;;;11.03;4.23;;;20.40;97.90;;;;;;6280776;22;20540;-84
2022/05/22 08:26:37;;;;;;;10.07;3.87;;;20.40;98.00;;;;;;6280184;22;20576;-85
2022/05/22 08:29:03;;;;;;;10.70;4.10;;;20.20;97.50;;;;;;6279990;22;20154;-84
2022/05/22 08:31:28;;;;;;;8.30;3.47;;;20.30;98.10;;;;;;6280295;22;20203;-84
2022/05/22 08:33:54;;;;;;;10.03;3.53;;;20.40;97.60;;;;;;6279593;22;20566;-84
2022/05/22 08:36:20;;;;;;;11.53;4.10;;;20.50;97.40;;;;;;6307215;22;20216;-84
2022/05/22 08:38:45;;;;;;;11.33;4.90;;;20.60;97.40;;;;;;6280124;22;20548;-84
2022/05/22 08:41:19;;;;;;;11.33;4.23;;;20.80;96.60;;;;;;6280502;22;20153;-86
2022/05/22 08:44:21;;;;;;;7.77;3.40;;;20.90;96.10;;;;;;6280120;22;20195;-84
2022/05/22 08:47:03;;;;;;;9.40;4.47;;;20.80;96.20;;;;;;6280387;22;20232;-83
2022/05/22 08:49:51;;;;;;;10.03;3.30;;;20.80;95.80;;;;;;6280397;22;20221;-84
2022/05/22 08:52:28;;;;;;;9.33;3.30;;;20.80;95.70;;;;;;6280002;22;20148;-84
2022/05/22 08:55:00;;;;;;;10.87;3.23;;;20.70;96.00;;;;;;6279962;22;20157;-84
2022/05/22 09:01:15;;;;;;;9.40;3.20;;;20.70;97.00;;;;;;6307577;22;20283;-84
2022/05/22 09:04:00;;;;;;;6.57;3.00;;;20.80;96.30;;;;;;6261736;22;20194;-84
2022/05/22 09:06:35;;;;;;;9.00;3.37;;;20.90;96.40;;;;;;6254151;22;20164;-84
2022/05/22 09:09:01;;;;;;;7.80;3.47;;;20.90;96.30;;;;;;6280632;22;20178;-84
2022/05/22 09:11:41;;;;;;;8.17;2.90;;;21.00;95.70;;;;;;6279885;22;20153;-85
2022/05/22 09:14:10;;;;;;;8.57;2.80;;;21.00;95.70;;;;;;6279793;22;20169;-84
2022/05/22 09:16:44;;;;;;;11.37;3.43;;;21.00;95.50;;;;;;6279854;22;20157;-84
2022/05/22 09:19:19;;;;;;;8.10;3.03;;;21.20;94.90;;;;;;6280229;22;20243;-84
2022/05/22 09:21:58;;;;;;;6.83;2.67;;;21.20;95.00;;;;;;6279991;22;20157;-84
2022/05/22 09:24:34;;;;;;;6.83;2.73;;;21.20;94.90;;;;;;6279853;22;20166;-84
2022/05/22 09:27:17;;;;;;;9.27;3.10;;;21.20;94.50;;;;;;6279920;22;20161;-84
2022/05/22 09:29:51;;;;;;;8.40;2.80;;;21.10;94.70;;;;;;6279745;22;20161;-84
2022/05/22 09:32:38;;;;;;;6.40;2.43;;;21.20;94.60;;;;;;6279760;22;20238;-84
2022/05/22 09:35:29;;;;;;;7.93;2.63;;;21.20;94.30;;;;;;6279911;22;20205;-86
2022/05/22 14:39:30;;;;;;;3.80;1.98;;;40.70;46.20;;;;;;6306639;22;20263;-93
2022/05/22 14:42:01;;;;;;;3.40;1.23;;;41.00;45.00;;;;;;6307717;22;20587;-93
2022/05/22 14:44:34;;;;;;;2.95;1.55;;;41.10;45.60;;;;;;6307761;22;20264;-94
2022/05/22 14:47:00;;;;;;;3.15;1.55;;;41.90;46.10;;;;;;6307560;22;20598;-94
2022/05/22 14:49:37;;;;;;;3.67;1.55;;;42.10;45.30;;;;;;6307503;22;20149;-93
2022/05/22 14:52:20;;;;;;;6.70;1.90;;;42.00;45.00;;;;;;6307264;22;20164;-93
2022/05/22 14:55:04;;;;;;;3.28;1.25;;;41.90;44.40;;;;;;6307935;22;20203;-93
2022/05/22 14:57:38;;;;;;;4.03;1.25;;;42.40;44.10;;;;;;6307614;22;20153;-92
2022/05/22 15:00:17;;;;;;;4.38;1.77;;;42.50;43.70;;;;;;6307466;22;20150;-90
2022/05/22 15:02:49;;;;;;;2.65;1.35;;;42.50;43.70;;;;;;6307465;22;20173;-93
2022/05/22 15:05:18;;;;;;;2.80;1.20;;;41.90;43.80;;;;;;6306618;22;20650;-93
2022/05/22 15:08:00;;;;;;;4.30;1.20;;;42.00;44.70;;;;;;6307675;22;20146;-93
2022/05/22 15:10:38;;;;;;;2.58;1.23;;;41.80;44.90;;;;;;6307663;22;20604;-94
2022/05/22 15:13:19;;;;;;;2.30;1.45;;;41.60;45.10;;;;;;6307470;22;20150;-93
2022/05/22 15:15:45;;;;;;;2.83;1.02;;;41.90;44.30;;;;;;6307136;22;20145;-93
2022/05/22 15:18:17;;;;;;;4.00;1.33;;;41.80;43.20;;;;;;6307584;22;20232;-92
2022/05/22 15:20:43;;;;;;;3.85;1.23;;;41.70;43.10;;;;;;6307899;22;20142;-93
2022/05/22 15:26:23;;;;;;;3.42;1.58;;;41.80;44.40;;;;;;6308532;22;20653;-93
2022/05/22 15:28:49;;;;;;;3.10;1.30;;;41.60;45.30;;;;;;6307266;22;20138;-94
2022/05/22 15:31:29;;;;;;;3.50;1.58;;;41.60;46.00;;;;;;6307542;22;20150;-93
2022/05/22 15:33:56;;;;;;;4.85;3.67;;;41.30;45.30;;;;;;6307231;22;20145;-93
2022/05/22 15:36:34;;;;;;;3.28;1.80;;;40.90;46.90;;;;;;6307225;22;20583;-94
2022/05/22 15:39:10;;;;;;;6.07;2.13;;;40.90;46.20;;;;;;6306920;22;20173;-93
2022/05/22 15:41:45;;;;;;;2.63;1.40;;;40.90;46.30;;;;;;6307220;22;20213;-94
2022/05/22 15:44:17;;;;;;;2.75;1.70;;;41.10;45.90;;;;;;6307482;22;20243;-93
2022/05/22 15:46:48;;;;;;;4.10;1.73;;;41.20;45.80;;;;;;6306766;22;20150;-93
2022/05/22 15:52:06;;;;;;;3.00;1.25;;;41.20;46.00;;;;;;6308624;22;20145;-94
2022/05/22 15:54:36;;;;;;;3.10;1.67;;;41.20;46.30;;;;;;6308307;22;20165;-93
2022/05/22 15:57:04;;;;;;;4.07;1.73;;;41.10;46.00;;;;;;6310925;22;20571;-94
2022/05/22 15:59:30;;;;;;;2.47;1.20;;;41.20;46.20;;;;;;6307009;22;20473;-95
2022/05/22 16:01:56;;;;;;;3.50;1.45;;;41.30;46.40;;;;;;6306564;22;20137;-94
2022/05/22 16:04:22;;;;;;;3.97;1.75;;;41.30;46.10;;;;;;6306474;22;20182;-94
2022/05/22 16:06:48;;;;;;;3.67;1.23;;;41.10;45.80;;;;;;6306803;22;20563;-94
2022/05/22 16:09:14;;;;;;;4.80;1.67;;;41.00;46.20;;;;;;6307155;22;20260;-93
2022/05/22 16:11:40;;;;;;;3.67;1.45;;;41.00;47.00;;;;;;6307327;22;20229;-94
2022/05/22 16:14:06;;;;;;;4.00;1.58;;;40.50;46.00;;;;;;6307057;22;20193;-95
2022/05/22 16:16:34;;;;;;;6.75;1.90;;;39.80;46.50;;;;;;6306773;22;20571;-94
2022/05/22 16:19:01;;;;;;;2.95;1.40;;;39.60;46.90;;;;;;6306796;22;20481;-94
2022/05/22 16:21:28;;;;;;;3.10;1.33;;;39.80;47.00;;;;;;6282169;22;20566;-94
2022/05/22 16:23:54;;;;;;;3.17;1.30;;;39.70;46.80;;;;;;6307088;22;20181;-93
2022/05/22 16:26:21;;;;;;;3.63;1.95;;;39.90;46.80;;;;;;6304556;22;20146;-93
2022/05/22 16:28:47;;;;;;;3.70;1.77;;;40.00;46.50;;;;;;6308612;22;20145;-94
2022/05/22 16:31:33;;;;;;;4.53;1.60;;;40.00;46.60;;;;;;6312944;22;20149;-93
2022/05/22 16:34:02;;;;;;;3.00;1.50;;;40.20;46.50;;;;;;6312212;22;20145;-94
2022/05/22 16:36:28;;;;;;;4.40;1.60;;;40.10;46.60;;;;;;6306628;22;20579;-93
2022/05/22 16:38:53;;;;;;;6.57;2.22;;;40.00;46.10;;;;;;6306437;22;20249;-94
2022/05/22 16:41:21;;;;;;;3.22;1.33;;;39.70;46.20;;;;;;6311199;22;20149;-93
2022/05/22 16:43:47;;;;;;;7.53;4.35;;;39.30;46.80;;;;;;6306209;22;20256;-91
2022/05/22 16:46:19;;;;;;;2.28;1.65;;;39.10;46.60;;;;;;6306525;22;20162;-94
2022/05/22 16:54:14;;;;;;;4.00;1.60;;;38.60;46.60;;;;;;6308172;22;20272;-92
2022/05/22 16:56:41;;;;;;;5.25;1.75;;;38.70;46.60;;;;;;6309422;22;20138;-93
2022/05/22 16:59:08;;;;;;;2.30;1.52;;;38.60;46.70;;;;;;6312597;22;20146;-93
2022/05/22 17:01:35;;;;;;;4.65;1.50;;;38.70;46.70;;;;;;6315218;22;20145;-93
2022/05/22 17:04:04;;;;;;;5.53;1.67;;;38.80;46.40;;;;;;6315394;22;20174;-92
2022/05/22 17:06:34;;;;;;;4.00;1.30;;;39.00;46.90;;;;;;6314305;22;20145;-94
2022/05/22 17:09:07;;;;;;;3.38;1.60;;;39.00;46.30;;;;;;6310569;22;20162;-94
2022/05/22 17:11:41;;;;;;;4.35;1.67;;;38.70;46.60;;;;;;6310153;22;20156;-93
2022/05/22 17:14:20;;;;;;;5.20;1.50;;;38.60;46.90;;;;;;6309770;22;20169;-93
2022/05/22 17:16:46;;;;;;;3.72;1.48;;;38.60;46.70;;;;;;6311870;22;20145;-93
2022/05/22 17:19:12;;;;;;;4.00;1.38;;;38.50;46.60;;;;;;6310829;22;20210;-94
2022/05/22 17:21:40;;;;;;;4.25;1.40;;;38.30;46.70;;;;;;6310760;22;20146;-93
2022/05/22 17:24:07;;;;;;;4.53;1.83;;;37.80;47.10;;;;;;6310235;22;20185;-93
2022/05/22 17:26:34;;;;;;;4.18;1.60;;;37.30;47.60;;;;;;6309304;22;20149;-93
2022/05/22 17:29:02;;;;;;;3.85;1.58;;;36.80;47.80;;;;;;6310551;22;20188;-93
2022/05/22 17:31:29;;;;;;;4.03;1.60;;;36.80;47.70;;;;;;6310389;22;20225;-94
2022/05/22 17:33:57;;;;;;;3.92;1.45;;;36.90;47.80;;;;;;6312284;22;20149;-93
2022/05/22 17:36:24;;;;;;;2.95;1.70;;;37.00;47.80;;;;;;6314618;22;20142;-94
2022/05/22 17:38:51;;;;;;;3.85;1.30;;;37.00;47.80;;;;;;6310897;22;20184;-93
2022/05/22 17:41:17;;;;;;;3.33;1.50;;;36.90;48.10;;;;;;6310386;22;20146;-94
2022/05/22 17:43:43;;;;;;;4.03;1.83;;;36.50;48.20;;;;;;6309457;22;20566;-93
2022/05/22 17:46:09;;;;;;;3.88;1.80;;;36.30;48.40;;;;;;6309378;22;20134;-93
2022/05/22 17:48:35;;;;;;;4.93;1.90;;;36.20;48.60;;;;;;6309719;22;20487;-93
2022/05/22 17:51:01;;;;;;;5.05;1.60;;;36.20;48.60;;;;;;6309783;22;20645;-93
2022/05/22 17:53:27;;;;;;;4.10;1.70;;;36.10;48.80;;;;;;6309403;22;20145;-94
2022/05/22 17:55:55;;;;;;;5.22;2.10;;;36.20;48.70;;;;;;6309988;22;20169;-93
2022/05/22 17:58:21;;;;;;;8.52;2.42;;;36.20;48.60;;;;;;6310442;22;20159;-94
2022/05/22 18:00:47;;;;;;;4.10;2.10;;;36.00;49.20;;;;;;6310704;22;20145;-93
2022/05/22 18:03:13;;;;;;;4.63;1.90;;;35.50;49.10;;;;;;6312402;22;20177;-94
2022/05/22 18:05:39;;;;;;;4.50;1.88;;;35.30;49.60;;;;;;6313920;22;20579;-94
2022/05/22 18:08:10;;;;;;;5.70;1.48;;;35.30;49.40;;;;;;6312907;22;20146;-93
2022/05/22 18:16:20;;;;;;;4.63;1.70;;;34.70;49.80;;;;;;6311466;22;20217;-93
2022/05/22 18:18:45;;;;;;;3.50;1.60;;;34.20;50.30;;;;;;6311651;22;20150;-93
2022/05/22 18:21:34;;;;;;;4.28;1.85;;;33.90;50.50;;;;;;6319738;22;20286;-92
2022/05/22 18:26:55;;;;;;;4.32;1.83;;;33.10;51.10;;;;;;6314933;22;20149;-93
2022/05/22 18:29:23;;;;;;;3.15;1.45;;;32.80;51.50;;;;;;6308693;22;20359;-93
2022/05/22 18:31:49;;;;;;;2.65;1.48;;;32.90;51.30;;;;;;6308769;22;20146;-92
2022/05/22 18:34:16;;;;;;;6.32;1.90;;;32.60;51.80;;;;;;6307989;22;20614;-93
2022/05/22 18:36:42;;;;;;;4.22;1.40;;;32.60;51.80;;;;;;6308054;22;20138;-93
2022/05/22 18:39:08;;;;;;;2.15;1.30;;;32.40;51.90;;;;;;6311119;22;20260;-91
2022/05/22 18:41:36;;;;;;;4.00;1.60;;;32.20;52.00;;;;;;6310335;22;20146;-92
2022/05/22 18:44:11;;;;;;;4.35;1.35;;;32.10;51.70;;;;;;6310885;22;20181;-92
2022/05/22 18:46:37;;;;;;;3.42;1.42;;;31.80;52.00;;;;;;6312663;22;20153;-92
2022/05/22 18:49:09;;;;;;;3.83;1.48;;;31.70;52.00;;;;;;6318459;22;20473;-92
2022/05/22 18:51:37;;;;;;;3.08;1.13;;;31.60;52.20;;;;;;6294916;22;20218;-92
2022/05/22 18:54:06;;;;;;;3.00;1.40;;;31.50;51.90;;;;;;6319190;22;20543;-91
2022/05/22 18:56:34;;;;;;;4.73;1.43;;;31.40;51.90;;;;;;6318622;22;20142;-92
2022/05/22 18:59:04;;;;;;;4.00;1.17;;;31.20;52.60;;;;;;6318556;22;20482;-92
2022/05/22 19:01:31;;;;;;;3.53;1.30;;;31.00;52.50;;;;;;6319479;22;20196;-92
2022/05/22 19:03:57;;;;;;;3.20;1.30;;;30.90;52.70;;;;;;6317875;22;20629;-92
2022/05/22 19:06:23;;;;;;;3.67;1.30;;;30.70;53.10;;;;;;6318758;22;20146;-93
2022/05/22 19:08:49;;;;;;;3.23;1.40;;;30.70;53.20;;;;;;6317112;22;20469;-92
2022/05/22 19:11:16;;;;;;;3.43;1.30;;;30.50;53.70;;;;;;6316665;22;20150;-92
2022/05/22 19:13:56;;;;;;;4.53;1.50;;;30.30;53.80;;;;;;6317182;22;20174;-92
2022/05/22 19:16:40;;;;;;;2.90;1.20;;;30.10;53.90;;;;;;6317662;22;20145;-93
2022/05/22 19:19:07;;;;;;;5.57;1.93;;;29.90;54.20;;;;;;6318341;22;20141;-92
2022/05/22 19:21:34;;;;;;;4.90;1.63;;;29.70;54.40;;;;;;6317509;22;20641;-91
2022/05/22 19:23:59;;;;;;;3.00;1.17;;;29.90;54.30;;;;;;6317323;22;20177;-92
2022/05/22 19:26:26;;;;;;;2.60;1.17;;;29.90;54.30;;;;;;6317399;22;20172;-92
2022/05/22 19:28:59;;;;;;;4.80;1.40;;;29.60;54.60;;;;;;6317816;22;20192;-92
2022/05/22 19:31:27;;;;;;;2.67;1.30;;;29.70;54.50;;;;;;6317584;22;20137;-92
2022/05/22 19:33:59;;;;;;;6.20;2.77;;;29.60;54.50;;;;;;6321091;22;20169;-92
2022/05/22 19:36:24;;;;;;;3.10;1.60;;;29.60;54.80;;;;;;6321488;22;20142;-92
2022/05/22 19:38:54;;;;;;;4.60;1.63;;;29.50;55.00;;;;;;6320800;22;20193;-92
2022/05/22 19:44:09;;;;;;;5.50;1.43;;;29.10;55.70;;;;;;6318558;22;20492;-92
2022/05/22 19:46:41;;;;;;;3.57;1.40;;;29.00;55.80;;;;;;6316203;22;20145;-93
2022/05/22 19:49:13;;;;;;;5.70;2.27;;;28.90;56.40;;;;;;6316660;22;20146;-92
2022/05/22 19:51:41;;;;;;;2.37;1.40;;;28.80;56.20;;;;;;6317176;22;20149;-92
2022/05/22 19:59:38;;;;;;;3.83;1.50;;;28.60;56.90;;;;;;6319410;22;20196;-91
2022/05/22 20:02:05;;;;;;;3.67;1.43;;;28.50;56.80;;;;;;6316852;22;20138;-93
2022/05/22 20:04:33;;;;;;;2.93;1.43;;;28.50;57.30;;;;;;6316820;22;20173;-92
2022/05/22 20:06:59;;;;;;;3.73;1.67;;;28.40;57.30;;;;;;6316866;22;20154;-93
2022/05/22 20:09:30;;;;;;;3.73;2.07;;;28.50;57.20;;;;;;6317052;22;20173;-93
2022/05/22 20:11:55;;;;;;;3.43;1.30;;;28.30;57.30;;;;;;6317347;22;20142;-92
2022/05/22 20:14:21;;;;;;;3.57;1.60;;;28.20;57.00;;;;;;6318241;22;20170;-93
2022/05/22 20:16:47;;;;;;;3.67;1.53;;;28.10;57.00;;;;;;6317788;22;20150;-92
2022/05/22 20:19:17;;;;;;;3.47;1.50;;;28.10;57.40;;;;;;6317271;22;20178;-92
2022/05/22 20:21:43;;;;;;;2.70;1.77;;;28.00;58.00;;;;;;6317914;22;20141;-93
2022/05/22 20:24:12;;;;;;;6.10;2.23;;;28.00;57.60;;;;;;6317606;22;20178;-92
2022/05/22 20:26:39;;;;;;;4.03;1.63;;;28.00;57.70;;;;;;6317450;22;20145;-92
2022/05/22 20:29:06;;;;;;;5.10;2.13;;;28.00;57.60;;;;;;6318103;22;20153;-92
2022/05/22 20:31:33;;;;;;;6.30;1.60;;;27.90;57.90;;;;;;6317766;22;20142;-92
2022/05/22 20:34:00;;;;;;;6.77;2.20;;;28.00;59.90;;;;;;6316986;22;20210;-93
2022/05/22 20:36:27;;;;;;;3.60;1.80;;;27.90;62.10;;;;;;6317539;22;20575;-93
2022/05/22 20:38:53;;;;;;;3.30;1.73;;;28.00;64.30;;;;;;6317818;22;20662;-91
2022/05/22 20:41:18;;;;;;;3.33;2.03;;;27.80;64.80;;;;;;6318918;22;20169;-92
2022/05/22 20:43:49;;;;;;;4.30;1.70;;;27.60;64.80;;;;;;6317657;22;20181;-92
2022/05/22 20:46:21;;;;;;;3.53;1.93;;;27.60;64.20;;;;;;6318408;22;20209;-93
2022/05/22 20:48:47;;;;;;;4.23;1.80;;;27.50;64.40;;;;;;6318316;22;20146;-91
2022/05/22 20:51:13;;;;;;;4.30;1.80;;;27.40;65.60;;;;;;6318365;22;20206;-91
2022/05/22 20:53:38;;;;;;;3.23;1.87;;;27.40;63.30;;;;;;6317829;22;20198;-92
2022/05/22 20:59:04;;;;;;;3.27;1.50;;;27.30;63.70;;;;;;6319693;22;20145;-92
2022/05/22 21:01:30;;;;;;;5.13;1.67;;;27.30;62.90;;;;;;6318561;22;20566;-92
2022/05/22 21:03:57;;;;;;;1.60;1.50;;;27.10;65.20;;;;;;6317743;22;20180;-92
2022/05/22 21:06:22;;;;;;;3.53;1.90;;;27.10;64.90;;;;;;6316865;22;20197;-92
2022/05/22 21:08:48;;;;;;;4.67;1.80;;;27.10;65.50;;;;;;6317865;22;20165;-91
2022/05/22 21:11:14;;;;;;;3.63;1.70;;;27.10;63.10;;;;;;6317627;22;20150;-93
2022/05/22 21:13:40;;;;;;;3.23;1.57;;;27.00;63.50;;;;;;6318071;22;20229;-91